createdAt,value
2023-04-12T00:00:41.096Z,9.10
2023-04-12T00:01:41.122Z,9.20
2023-04-12T00:02:41.256Z,9.00
2023-04-12T00:03:41.306Z,9.30
2023-04-12T00:04:41.268Z,9.10
2023-04-12T00:05:41.179Z,8.90
2023-04-12T00:06:41.189Z,9.30
2023-04-12T00:07:41.196Z,9.10
2023-04-12T00:08:41.215Z,9.30
2023-04-12T00:09:41.230Z,9.20
2023-04-12T00:10:41.253Z,9.20
2023-04-12T00:11:41.294Z,9.40
2023-04-12T00:12:41.283Z,9.10
2023-04-12T00:13:41.297Z,9.30
2023-04-12T00:14:41.306Z,9.20
2023-04-12T00:15:41.346Z,9.30
2023-04-12T00:16:41.352Z,9.00
2023-04-12T00:17:41.378Z,9.00
2023-04-12T00:18:41.377Z,9.30
2023-04-12T00:19:41.402Z,8.90
2023-04-12T00:20:41.401Z,9.30
2023-04-12T00:21:41.421Z,9.00
2023-04-12T00:22:41.532Z,9.20
2023-04-12T00:23:41.453Z,9.00
2023-04-12T00:24:41.473Z,8.90
2023-04-12T00:25:41.493Z,9.10
2023-04-12T00:26:41.499Z,8.80
2023-04-12T00:27:41.533Z,9.00
2023-04-12T00:28:41.533Z,9.00
2023-04-12T00:29:41.538Z,9.10
2023-04-12T00:30:41.561Z,9.10
2023-04-12T00:31:41.669Z,9.40
2023-04-12T00:32:41.634Z,9.00
2023-04-12T00:33:41.616Z,9.00
2023-04-12T00:34:41.629Z,8.80
2023-04-12T00:35:41.659Z,9.00
2023-04-12T00:36:41.645Z,8.60
2023-04-12T00:37:41.662Z,9.20
2023-04-12T00:38:41.675Z,9.10
2023-04-12T00:39:41.694Z,8.80
2023-04-12T00:40:41.714Z,9.60
2023-04-12T00:41:41.723Z,8.90
2023-04-12T00:42:41.736Z,9.20
2023-04-12T00:43:41.856Z,9.30
2023-04-12T00:44:41.776Z,8.70
2023-04-12T00:45:41.781Z,8.60
2023-04-12T00:46:41.842Z,9.40
2023-04-12T00:47:41.843Z,9.20
2023-04-12T00:48:41.828Z,9.10
2023-04-12T00:49:41.851Z,8.90
2023-04-12T00:50:41.864Z,9.20
2023-04-12T00:51:41.875Z,9.20
2023-04-12T00:52:41.937Z,9.10
2023-04-12T00:53:41.906Z,8.90
2023-04-12T00:54:41.920Z,9.00
2023-04-12T00:55:41.935Z,9.10
2023-04-12T00:56:41.992Z,8.50
2023-04-12T00:57:41.972Z,8.80
2023-04-12T00:58:41.981Z,9.10
2023-04-12T00:59:42.023Z,8.90
2023-04-12T01:00:42.094Z,9.10
2023-04-12T01:01:42.142Z,8.90
2023-04-12T01:02:42.312Z,8.90
2023-04-12T01:03:42.139Z,9.20
2023-04-12T01:04:42.071Z,8.90
2023-04-12T01:05:42.085Z,8.90
2023-04-12T01:06:42.104Z,8.90
2023-04-12T01:07:42.129Z,9.40
2023-04-12T01:08:42.147Z,8.80
2023-04-12T01:09:42.152Z,9.10
2023-04-12T01:10:42.163Z,9.00
2023-04-12T01:11:42.178Z,9.20
2023-04-12T01:12:42.204Z,9.10
2023-04-12T01:13:42.205Z,8.90
2023-04-12T01:14:42.235Z,8.80
2023-04-12T01:15:42.270Z,8.90
2023-04-12T01:16:42.361Z,9.10
2023-04-12T01:17:42.292Z,8.80
2023-04-12T01:18:42.291Z,9.00
2023-04-12T01:19:42.303Z,9.30
2023-04-12T01:20:42.323Z,8.40
2023-04-12T01:21:42.335Z,9.00
2023-04-12T01:22:42.349Z,9.20
2023-04-12T01:23:42.374Z,8.30
2023-04-12T01:24:42.380Z,8.80
2023-04-12T01:25:42.387Z,8.90
2023-04-12T01:26:42.429Z,8.90
2023-04-12T01:27:42.417Z,8.50
2023-04-12T01:28:42.442Z,8.80
2023-04-12T01:29:42.457Z,9.20
2023-04-12T01:30:42.465Z,8.80
2023-04-12T01:31:42.512Z,8.80
2023-04-12T01:32:42.526Z,8.90
2023-04-12T01:33:42.513Z,8.60
2023-04-12T01:34:42.523Z,8.90
2023-04-12T01:35:42.570Z,9.10
2023-04-12T01:36:42.565Z,8.60
2023-04-12T01:37:42.574Z,8.90
2023-04-12T01:38:42.584Z,8.40
2023-04-12T01:39:42.604Z,8.80
2023-04-12T01:40:42.788Z,8.80
2023-04-12T01:41:42.645Z,8.70
2023-04-12T01:42:42.660Z,8.40
2023-04-12T01:43:42.669Z,8.50
2023-04-12T01:44:42.683Z,8.80
2023-04-12T01:45:42.779Z,9.10
2023-04-12T01:46:42.714Z,8.40
2023-04-12T01:47:42.780Z,8.50
2023-04-12T01:48:42.736Z,8.90
2023-04-12T01:49:42.773Z,8.70
2023-04-12T01:50:42.773Z,8.40
2023-04-12T01:51:42.793Z,8.50
2023-04-12T01:52:42.806Z,9.00
2023-04-12T01:53:42.831Z,8.30
2023-04-12T01:54:42.839Z,8.80
2023-04-12T01:55:42.860Z,8.30
2023-04-12T01:56:42.870Z,8.20
2023-04-12T01:57:42.879Z,8.30
2023-04-12T01:58:42.897Z,8.40
2023-04-12T01:59:42.904Z,8.60
2023-04-12T02:00:42.919Z,8.30
2023-04-12T02:01:43.125Z,8.30
2023-04-12T02:02:43.275Z,8.60
2023-04-12T02:03:43.095Z,8.20
2023-04-12T02:04:43.021Z,8.30
2023-04-12T02:05:42.993Z,8.60
2023-04-12T02:06:43.009Z,8.20
2023-04-12T02:07:43.027Z,8.20
2023-04-12T02:08:43.061Z,8.10
2023-04-12T02:09:43.069Z,8.10
2023-04-12T02:10:43.069Z,8.40
2023-04-12T02:11:43.091Z,8.10
2023-04-12T02:12:43.104Z,8.50
2023-04-12T02:13:43.119Z,8.40
2023-04-12T02:14:43.134Z,7.90
2023-04-12T02:15:43.142Z,8.10
2023-04-12T02:16:43.194Z,8.10
2023-04-12T02:17:43.200Z,8.40
2023-04-12T02:18:43.216Z,8.30
2023-04-12T02:19:43.227Z,8.20
2023-04-12T02:20:43.227Z,8.40
2023-04-12T02:21:43.273Z,8.00
2023-04-12T02:22:43.259Z,8.20
2023-04-12T02:23:43.269Z,8.40
2023-04-12T02:24:43.286Z,8.20
2023-04-12T02:25:43.299Z,8.20
2023-04-12T02:26:43.314Z,8.00
2023-04-12T02:27:43.337Z,7.60
2023-04-12T02:28:43.338Z,7.70
2023-04-12T02:29:43.360Z,8.30
2023-04-12T02:30:43.452Z,8.00
2023-04-12T02:31:43.386Z,8.10
2023-04-12T02:32:43.446Z,8.00
2023-04-12T02:33:43.424Z,7.90
2023-04-12T02:34:43.435Z,8.10
2023-04-12T02:35:43.504Z,8.00
2023-04-12T02:36:43.457Z,7.90
2023-04-12T02:37:43.480Z,8.00
2023-04-12T02:38:43.495Z,7.40
2023-04-12T02:39:43.516Z,8.00
2023-04-12T02:40:43.526Z,7.60
2023-04-12T02:41:43.533Z,8.00
2023-04-12T02:42:43.556Z,7.80
2023-04-12T02:43:43.562Z,7.70
2023-04-12T02:44:43.592Z,7.80
2023-04-12T02:45:43.624Z,7.60
2023-04-12T02:46:43.607Z,7.50
2023-04-12T02:47:43.686Z,8.10
2023-04-12T02:48:43.637Z,7.50
2023-04-12T02:49:43.672Z,7.40
2023-04-12T02:50:43.674Z,7.60
2023-04-12T02:51:43.708Z,7.50
2023-04-12T02:52:43.698Z,7.50
2023-04-12T02:53:43.712Z,7.50
2023-04-12T02:54:43.748Z,7.50
2023-04-12T02:55:43.741Z,8.00
2023-04-12T02:56:43.794Z,7.80
2023-04-12T02:57:43.785Z,7.20
2023-04-12T02:58:43.794Z,7.70
2023-04-12T02:59:43.802Z,7.60
2023-04-12T03:00:43.843Z,7.70
2023-04-12T03:01:43.895Z,7.30
2023-04-12T03:02:44.052Z,7.50
2023-04-12T03:03:43.900Z,7.40
2023-04-12T03:04:43.876Z,7.00
2023-04-12T03:05:43.893Z,7.20
2023-04-12T03:06:43.917Z,7.50
2023-04-12T03:07:43.940Z,7.40
2023-04-12T03:08:43.944Z,7.10
2023-04-12T03:09:43.957Z,7.20
2023-04-12T03:10:43.976Z,7.70
2023-04-12T03:11:43.988Z,7.40
2023-04-12T03:12:44.008Z,7.40
2023-04-12T03:13:44.021Z,7.10
2023-04-12T03:14:44.034Z,7.00
2023-04-12T03:15:44.118Z,7.30
2023-04-12T03:16:44.055Z,7.60
2023-04-12T03:17:44.108Z,7.00
2023-04-12T03:18:44.092Z,7.30
2023-04-12T03:19:44.100Z,7.50
2023-04-12T03:20:46.044Z,7.00
2023-04-12T03:21:44.135Z,7.20
2023-04-12T03:22:44.150Z,7.40
2023-04-12T03:23:44.183Z,7.40
2023-04-12T03:24:44.182Z,7.30
2023-04-12T03:25:44.204Z,7.70
2023-04-12T03:26:44.269Z,7.10
2023-04-12T03:27:44.227Z,7.00
2023-04-12T03:28:44.243Z,7.20
2023-04-12T03:29:44.246Z,7.30
2023-04-12T03:30:44.277Z,7.20
2023-04-12T03:31:44.278Z,7.00
2023-04-12T03:32:44.323Z,7.50
2023-04-12T03:33:44.307Z,7.40
2023-04-12T03:34:44.320Z,7.30
2023-04-12T03:35:44.359Z,7.20
2023-04-12T03:36:44.390Z,6.80
2023-04-12T03:37:44.365Z,6.90
2023-04-12T03:38:44.396Z,7.20
2023-04-12T03:39:44.419Z,7.10
2023-04-12T03:40:44.418Z,7.30
2023-04-12T03:41:44.422Z,7.50
2023-04-12T03:42:44.438Z,7.40
2023-04-12T03:43:44.454Z,7.50
2023-04-12T03:44:44.475Z,6.90
2023-04-12T03:45:44.491Z,7.40
2023-04-12T03:46:44.557Z,6.90
2023-04-12T03:47:44.554Z,7.30
2023-04-12T03:48:44.538Z,7.10
2023-04-12T03:49:47.754Z,7.10
2023-04-12T03:50:44.744Z,7.20
2023-04-12T03:51:44.579Z,6.90
2023-04-12T03:52:44.592Z,6.80
2023-04-12T03:53:44.602Z,7.10
2023-04-12T03:54:44.628Z,7.40
2023-04-12T03:55:44.652Z,6.80
2023-04-12T03:56:46.096Z,7.20
2023-04-12T03:57:44.661Z,7.20
2023-04-12T03:58:44.690Z,7.10
2023-04-12T03:59:44.704Z,6.90
2023-04-12T04:00:44.709Z,7.00
2023-04-12T04:01:44.768Z,6.90
2023-04-12T04:02:44.923Z,6.80
2023-04-12T04:03:45.391Z,7.00
2023-04-12T04:04:44.811Z,7.10
2023-04-12T04:05:44.792Z,7.30
2023-04-12T04:06:44.803Z,6.70
2023-04-12T04:07:44.819Z,7.30
2023-04-12T04:08:44.835Z,7.00
2023-04-12T04:09:44.840Z,7.30
2023-04-12T04:10:44.873Z,6.40
2023-04-12T04:11:44.895Z,6.90
2023-04-12T04:12:44.885Z,7.00
2023-04-12T04:13:44.899Z,7.00
2023-04-12T04:14:44.916Z,7.00
2023-04-12T04:15:44.937Z,6.80
2023-04-12T04:16:45.002Z,6.60
2023-04-12T04:17:45.036Z,7.00
2023-04-12T04:18:44.985Z,6.70
2023-04-12T04:19:45.002Z,7.00
2023-04-12T04:20:45.004Z,6.40
2023-04-12T04:21:45.018Z,7.20
2023-04-12T04:22:45.040Z,6.80
2023-04-12T04:23:45.233Z,6.80
2023-04-12T04:24:45.066Z,6.80
2023-04-12T04:25:45.078Z,6.80
2023-04-12T04:26:45.099Z,6.70
2023-04-12T04:27:45.161Z,6.90
2023-04-12T04:28:45.147Z,6.80
2023-04-12T04:29:45.145Z,6.90
2023-04-12T04:30:45.153Z,7.00
2023-04-12T04:31:45.223Z,6.60
2023-04-12T04:32:45.230Z,6.60
2023-04-12T04:33:45.205Z,6.70
2023-04-12T04:34:45.225Z,6.40
2023-04-12T04:35:45.248Z,6.50
2023-04-12T04:36:45.242Z,6.90
2023-04-12T04:37:45.267Z,6.60
2023-04-12T04:38:45.277Z,6.80
2023-04-12T04:39:45.295Z,6.70
2023-04-12T04:40:45.299Z,6.40
2023-04-12T04:41:45.345Z,6.40
2023-04-12T04:42:45.330Z,6.40
2023-04-12T04:43:45.388Z,6.60
2023-04-12T04:44:45.386Z,6.30
2023-04-12T04:45:45.417Z,6.20
2023-04-12T04:46:45.413Z,6.50
2023-04-12T04:47:45.450Z,6.60
2023-04-12T04:48:45.439Z,6.50
2023-04-12T04:49:45.448Z,6.50
2023-04-12T04:50:45.463Z,6.30
2023-04-12T04:51:45.473Z,6.50
2023-04-12T04:52:45.480Z,6.60
2023-04-12T04:53:45.495Z,6.60
2023-04-12T04:54:45.509Z,6.20
2023-04-12T04:55:45.549Z,6.80
2023-04-12T04:56:45.565Z,6.20
2023-04-12T04:57:45.553Z,6.10
2023-04-12T04:58:45.582Z,6.60
2023-04-12T04:59:45.601Z,6.30
2023-04-12T05:00:45.718Z,6.40
2023-04-12T05:01:45.733Z,6.30
2023-04-12T05:02:45.972Z,6.30
2023-04-12T05:03:45.743Z,6.50
2023-04-12T05:04:45.673Z,6.70
2023-04-12T05:05:45.682Z,6.40
2023-04-12T05:06:45.686Z,6.20
2023-04-12T05:07:45.710Z,6.40
2023-04-12T05:08:45.718Z,6.50
2023-04-12T05:09:45.733Z,6.60
2023-04-12T05:10:45.754Z,6.30
2023-04-12T05:11:45.756Z,6.50
2023-04-12T05:12:45.780Z,6.00
2023-04-12T05:13:45.792Z,6.40
2023-04-12T05:14:47.987Z,6.50
2023-04-12T05:15:45.843Z,6.60
2023-04-12T05:16:45.902Z,6.20
2023-04-12T05:17:45.923Z,6.60
2023-04-12T05:18:45.863Z,6.50
2023-04-12T05:19:45.891Z,6.10
2023-04-12T05:20:45.988Z,6.10
2023-04-12T05:21:45.907Z,6.10
2023-04-12T05:22:45.919Z,6.60
2023-04-12T05:23:45.938Z,6.00
2023-04-12T05:24:45.972Z,6.40
2023-04-12T05:25:45.959Z,6.40
2023-04-12T05:26:45.993Z,6.10
2023-04-12T05:27:46.000Z,6.60
2023-04-12T05:28:46.067Z,6.20
2023-04-12T05:29:46.016Z,6.30
2023-04-12T05:30:46.045Z,6.30
2023-04-12T05:31:46.082Z,6.10
2023-04-12T05:32:46.151Z,6.30
2023-04-12T05:33:46.084Z,6.70
2023-04-12T05:34:46.091Z,6.10
2023-04-12T05:35:46.151Z,6.50
2023-04-12T05:36:46.122Z,5.90
2023-04-12T05:37:46.142Z,6.60
2023-04-12T05:38:46.155Z,6.10
2023-04-12T05:39:46.164Z,6.40
2023-04-12T05:40:46.177Z,6.40
2023-04-12T05:41:46.201Z,6.50
2023-04-12T05:42:46.215Z,6.30
2023-04-12T05:43:46.224Z,6.30
2023-04-12T05:44:48.636Z,6.60
2023-04-12T05:45:46.304Z,6.40
2023-04-12T05:46:46.333Z,6.50
2023-04-12T05:47:46.385Z,6.10
2023-04-12T05:48:46.305Z,6.40
2023-04-12T05:49:46.318Z,6.50
2023-04-12T05:50:46.325Z,6.10
2023-04-12T05:51:46.343Z,6.00
2023-04-12T05:52:46.357Z,6.40
2023-04-12T05:53:46.377Z,6.20
2023-04-12T05:54:46.384Z,6.50
2023-04-12T05:55:46.404Z,6.10
2023-04-12T05:56:46.420Z,6.00
2023-04-12T05:57:46.436Z,6.50
2023-04-12T05:58:46.449Z,6.40
2023-04-12T05:59:46.467Z,6.50
2023-04-12T06:00:46.474Z,6.50
2023-04-12T06:01:46.523Z,6.10
2023-04-12T06:02:46.665Z,6.30
2023-04-12T06:03:46.659Z,5.80
2023-04-12T06:04:50.114Z,6.40
2023-04-12T06:05:46.554Z,6.30
2023-04-12T06:06:46.574Z,5.90
2023-04-12T06:07:46.584Z,6.20
2023-04-12T06:08:46.593Z,6.40
2023-04-12T06:09:46.609Z,6.30
2023-04-12T06:10:46.631Z,5.90
2023-04-12T06:11:46.633Z,6.50
2023-04-12T06:12:46.661Z,5.90
2023-04-12T06:13:46.668Z,6.00
2023-04-12T06:14:46.689Z,6.00
2023-04-12T06:15:46.765Z,6.00
2023-04-12T06:16:46.715Z,6.10
2023-04-12T06:17:46.782Z,5.80
2023-04-12T06:18:46.738Z,6.20
2023-04-12T06:19:46.779Z,6.20
2023-04-12T06:20:46.776Z,5.70
2023-04-12T06:21:46.780Z,6.10
2023-04-12T06:22:46.803Z,6.00
2023-04-12T06:23:46.839Z,6.00
2023-04-12T06:24:46.838Z,5.90
2023-04-12T06:25:46.844Z,6.00
2023-04-12T06:26:46.875Z,5.90
2023-04-12T06:27:46.868Z,6.00
2023-04-12T06:28:46.917Z,5.60
2023-04-12T06:29:46.894Z,6.00
2023-04-12T06:30:46.918Z,5.70
2023-04-12T06:31:47.011Z,5.70
2023-04-12T06:32:47.024Z,5.70
2023-04-12T06:33:46.946Z,5.60
2023-04-12T06:34:46.963Z,5.60
2023-04-12T06:35:47.258Z,5.70
2023-04-12T06:36:46.999Z,5.60
2023-04-12T06:37:47.006Z,5.70
2023-04-12T06:38:47.036Z,6.00
2023-04-12T06:39:47.035Z,5.80
2023-04-12T06:40:47.050Z,5.50
2023-04-12T06:41:47.062Z,5.20
2023-04-12T06:42:47.090Z,6.00
2023-04-12T06:43:47.100Z,5.60
2023-04-12T06:44:47.114Z,5.60
2023-04-12T06:45:47.137Z,5.60
2023-04-12T06:46:47.163Z,5.70
2023-04-12T06:47:47.227Z,5.80
2023-04-12T06:48:47.163Z,5.70
2023-04-12T06:49:47.184Z,5.60
2023-04-12T06:50:47.200Z,5.70
2023-04-12T06:51:47.362Z,5.50
2023-04-12T06:52:47.227Z,5.60
2023-04-12T06:53:47.233Z,5.60
2023-04-12T06:54:47.248Z,5.60
2023-04-12T06:55:47.366Z,5.60
2023-04-12T06:56:47.294Z,5.50
2023-04-12T06:57:47.306Z,5.60
2023-04-12T06:58:47.312Z,5.60
2023-04-12T06:59:47.333Z,5.40
2023-04-12T07:00:47.353Z,5.40
2023-04-12T07:01:47.404Z,5.10
2023-04-12T07:02:47.445Z,5.20
2023-04-12T07:03:47.498Z,5.20
2023-04-12T07:04:47.395Z,5.40
2023-04-12T07:05:47.428Z,5.50
2023-04-12T07:06:47.426Z,5.40
2023-04-12T07:07:47.467Z,5.20
2023-04-12T07:08:47.458Z,5.30
2023-04-12T07:09:47.476Z,5.50
2023-04-12T07:10:47.482Z,5.30
2023-04-12T07:11:47.497Z,5.40
2023-04-12T07:12:47.526Z,5.20
2023-04-12T07:13:47.534Z,5.60
2023-04-12T07:14:47.540Z,5.60
2023-04-12T07:15:47.569Z,5.30
2023-04-12T07:16:47.674Z,5.60
2023-04-12T07:17:47.611Z,5.20
2023-04-12T07:18:47.630Z,5.10
2023-04-12T07:19:47.634Z,5.20
2023-04-12T07:20:47.638Z,5.20
2023-04-12T07:21:47.641Z,5.40
2023-04-12T07:22:47.657Z,5.00
2023-04-12T07:23:47.725Z,5.00
2023-04-12T07:24:47.697Z,5.20
2023-04-12T07:25:47.700Z,5.20
2023-04-12T07:26:47.719Z,5.20
2023-04-12T07:27:48.455Z,5.10
2023-04-12T07:28:47.744Z,5.30
2023-04-12T07:29:47.763Z,5.20
2023-04-12T07:30:47.771Z,5.10
2023-04-12T07:31:47.795Z,5.50
2023-04-12T07:32:47.977Z,5.00
2023-04-12T07:33:47.939Z,5.20
2023-04-12T07:34:47.844Z,5.10
2023-04-12T07:35:47.877Z,5.50
2023-04-12T07:36:47.868Z,5.00
2023-04-12T07:37:47.878Z,5.20
2023-04-12T07:38:47.896Z,5.10
2023-04-12T07:39:48.062Z,5.00
2023-04-12T07:40:50.257Z,5.30
2023-04-12T07:41:47.932Z,5.10
2023-04-12T07:42:47.969Z,5.00
2023-04-12T07:43:47.975Z,4.90
2023-04-12T07:44:47.991Z,5.00
2023-04-12T07:45:48.024Z,5.00
2023-04-12T07:46:48.016Z,5.40
2023-04-12T07:47:48.056Z,5.20
2023-04-12T07:48:48.046Z,5.00
2023-04-12T07:49:48.076Z,5.10
2023-04-12T07:50:48.070Z,5.10
2023-04-12T07:51:48.079Z,5.20
2023-04-12T07:52:48.100Z,5.10
2023-04-12T07:53:48.133Z,5.00
2023-04-12T07:54:48.124Z,5.10
2023-04-12T07:55:48.161Z,5.10
2023-04-12T07:56:48.151Z,5.20
2023-04-12T07:57:48.165Z,4.80
2023-04-12T07:58:48.197Z,5.20
2023-04-12T07:59:48.215Z,4.70
2023-04-12T08:00:48.220Z,4.90
2023-04-12T08:01:48.252Z,4.90
2023-04-12T08:02:48.338Z,5.10
2023-04-12T08:03:48.364Z,4.70
2023-04-12T08:04:48.275Z,5.00
2023-04-12T08:05:48.335Z,4.80
2023-04-12T08:06:48.406Z,5.00
2023-04-12T08:07:48.317Z,4.90
2023-04-12T08:08:48.421Z,5.00
2023-04-12T08:09:48.344Z,4.90
2023-04-12T08:10:48.359Z,4.80
2023-04-12T08:11:48.413Z,4.80
2023-04-12T08:12:48.388Z,5.30
2023-04-12T08:13:48.407Z,4.50
2023-04-12T08:14:48.418Z,4.60
2023-04-12T08:15:48.527Z,4.70
2023-04-12T08:16:48.437Z,5.00
2023-04-12T08:17:48.475Z,5.10
2023-04-12T08:18:48.514Z,5.00
2023-04-12T08:19:48.480Z,4.80
2023-04-12T08:20:48.494Z,4.70
2023-04-12T08:21:48.516Z,4.60
2023-04-12T08:22:48.533Z,5.00
2023-04-12T08:23:48.536Z,4.60
2023-04-12T08:24:48.559Z,4.80
2023-04-12T08:25:48.566Z,4.70
2023-04-12T08:26:48.589Z,4.50
2023-04-12T08:27:48.626Z,4.90
2023-04-12T08:28:48.619Z,4.70
2023-04-12T08:29:48.631Z,4.90
2023-04-12T08:30:48.638Z,5.00
2023-04-12T08:31:48.706Z,4.90
2023-04-12T08:32:48.807Z,4.70
2023-04-12T08:33:48.689Z,4.90
2023-04-12T08:34:48.706Z,4.80
2023-04-12T08:35:48.782Z,4.60
2023-04-12T08:36:48.732Z,4.70
2023-04-12T08:37:48.738Z,4.80
2023-04-12T08:38:48.771Z,4.70
2023-04-12T08:39:48.777Z,4.60
2023-04-12T08:40:48.791Z,4.80
2023-04-12T08:41:48.805Z,5.00
2023-04-12T08:42:48.813Z,4.60
2023-04-12T08:43:48.924Z,5.00
2023-04-12T08:44:48.856Z,5.00
2023-04-12T08:45:48.861Z,4.70
2023-04-12T08:46:48.892Z,4.60
2023-04-12T08:47:48.889Z,5.00
2023-04-12T08:48:48.917Z,4.70
2023-04-12T08:49:48.913Z,4.90
2023-04-12T08:50:50.537Z,5.00
2023-04-12T08:51:48.942Z,4.70
2023-04-12T08:52:48.964Z,4.70
2023-04-12T08:53:48.980Z,4.40
2023-04-12T08:54:49.007Z,4.50
2023-04-12T08:55:49.013Z,4.70
2023-04-12T08:56:49.013Z,4.80
2023-04-12T08:57:49.026Z,4.60
2023-04-12T08:58:49.121Z,4.70
2023-04-12T08:59:49.089Z,4.60
2023-04-12T09:00:49.081Z,4.60
2023-04-12T09:01:49.135Z,4.70
2023-04-12T09:02:49.331Z,4.30
2023-04-12T09:03:49.317Z,4.60
2023-04-12T09:04:49.446Z,4.60
2023-04-12T09:05:49.147Z,4.70
2023-04-12T09:06:49.173Z,4.50
2023-04-12T09:07:49.182Z,4.40
2023-04-12T09:08:49.205Z,4.40
2023-04-12T09:09:49.207Z,4.40
2023-04-12T09:10:49.230Z,4.60
2023-04-12T09:11:49.235Z,4.40
2023-04-12T09:12:50.936Z,4.40
2023-04-12T09:13:49.271Z,4.30
2023-04-12T09:14:49.302Z,4.20
2023-04-12T09:15:49.331Z,4.30
2023-04-12T09:16:49.374Z,4.90
2023-04-12T09:17:49.391Z,4.70
2023-04-12T09:18:49.365Z,4.70
2023-04-12T09:19:49.344Z,4.30
2023-04-12T09:20:49.361Z,4.20
2023-04-12T09:21:49.387Z,4.30
2023-04-12T09:22:49.393Z,4.40
2023-04-12T09:23:49.421Z,4.40
2023-04-12T09:24:49.425Z,4.20
2023-04-12T09:25:49.428Z,4.40
2023-04-12T09:26:49.450Z,4.30
2023-04-12T09:27:49.468Z,4.40
2023-04-12T09:28:49.472Z,4.50
2023-04-12T09:29:49.487Z,4.80
2023-04-12T09:30:49.512Z,4.20
2023-04-12T09:31:49.643Z,4.40
2023-04-12T09:32:49.716Z,4.10
2023-04-12T09:33:49.549Z,4.30
2023-04-12T09:34:49.557Z,4.50
2023-04-12T09:35:49.788Z,4.30
2023-04-12T09:36:49.586Z,4.20
2023-04-12T09:37:49.611Z,4.60
2023-04-12T09:38:49.615Z,4.30
2023-04-12T09:39:49.636Z,4.20
2023-04-12T09:40:49.650Z,4.50
2023-04-12T09:41:49.665Z,4.20
2023-04-12T09:42:49.683Z,4.20
2023-04-12T09:43:49.687Z,4.40
2023-04-12T09:44:49.714Z,4.30
2023-04-12T09:45:49.805Z,4.30
2023-04-12T09:46:49.840Z,4.10
2023-04-12T09:47:49.885Z,4.30
2023-04-12T09:48:49.774Z,4.20
2023-04-12T09:49:49.778Z,4.10
2023-04-12T09:50:49.807Z,4.40
2023-04-12T09:51:49.800Z,4.20
2023-04-12T09:52:49.817Z,4.30
2023-04-12T09:53:49.834Z,4.00
2023-04-12T09:54:49.849Z,4.30
2023-04-12T09:55:49.865Z,4.10
2023-04-12T09:56:49.889Z,3.90
2023-04-12T09:57:49.888Z,4.10
2023-04-12T09:58:49.914Z,4.20
2023-04-12T09:59:49.946Z,4.50
2023-04-12T10:00:49.926Z,4.00
2023-04-12T10:01:49.998Z,4.50
2023-04-12T10:02:51.453Z,4.20
2023-04-12T10:03:50.157Z,4.10
2023-04-12T10:04:50.200Z,4.30
2023-04-12T10:05:50.001Z,4.30
2023-04-12T10:06:50.018Z,4.20
2023-04-12T10:07:50.333Z,4.20
2023-04-12T10:08:50.054Z,4.30
2023-04-12T10:09:50.052Z,4.30
2023-04-12T10:10:50.097Z,4.20
2023-04-12T10:11:50.091Z,4.00
2023-04-12T10:12:50.132Z,4.30
2023-04-12T10:13:50.116Z,4.30
2023-04-12T10:14:50.150Z,4.20
2023-04-12T10:15:50.203Z,4.20
2023-04-12T10:16:50.185Z,4.30
2023-04-12T10:17:50.209Z,4.10
2023-04-12T10:18:50.191Z,4.10
2023-04-12T10:19:50.225Z,4.40
2023-04-12T10:20:50.221Z,4.10
2023-04-12T10:21:50.257Z,4.20
2023-04-12T10:22:50.251Z,4.20
2023-04-12T10:23:50.265Z,4.30
2023-04-12T10:24:50.285Z,4.10
2023-04-12T10:25:50.295Z,4.40
2023-04-12T10:26:50.357Z,4.20
2023-04-12T10:27:50.722Z,4.10
2023-04-12T10:28:50.350Z,4.30
2023-04-12T10:29:50.354Z,4.10
2023-04-12T10:30:50.393Z,4.40
2023-04-12T10:31:50.441Z,4.40
2023-04-12T10:32:50.403Z,4.20
2023-04-12T10:33:50.406Z,4.10
2023-04-12T10:34:50.424Z,4.10
2023-04-12T10:35:50.472Z,4.20
2023-04-12T10:36:50.506Z,4.40
2023-04-12T10:37:50.489Z,4.40
2023-04-12T10:38:50.478Z,4.10
2023-04-12T10:39:50.516Z,4.10
2023-04-12T10:40:50.528Z,4.40
2023-04-12T10:41:50.520Z,4.30
2023-04-12T10:42:50.558Z,4.10
2023-04-12T10:43:50.571Z,4.20
2023-04-12T10:44:50.562Z,3.90
2023-04-12T10:45:50.572Z,4.30
2023-04-12T10:46:50.711Z,4.00
2023-04-12T10:47:50.796Z,4.10
2023-04-12T10:48:50.653Z,3.90
2023-04-12T10:49:50.658Z,4.10
2023-04-12T10:50:50.653Z,4.10
2023-04-12T10:51:50.720Z,4.10
2023-04-12T10:52:50.696Z,4.10
2023-04-12T10:53:50.715Z,4.20
2023-04-12T10:54:50.743Z,4.30
2023-04-12T10:55:50.716Z,4.20
2023-04-12T10:56:50.755Z,4.20
2023-04-12T10:57:50.761Z,3.90
2023-04-12T10:58:50.913Z,4.30
2023-04-12T10:59:50.813Z,4.40
2023-04-12T11:00:50.890Z,4.10
2023-04-12T11:01:50.989Z,4.20
2023-04-12T11:02:51.032Z,4.10
2023-04-12T11:03:51.013Z,4.20
2023-04-12T11:04:50.932Z,4.00
2023-04-12T11:05:50.857Z,4.20
2023-04-12T11:06:52.385Z,4.00
2023-04-12T11:07:50.937Z,3.90
2023-04-12T11:08:50.920Z,4.00
2023-04-12T11:09:50.913Z,4.10
2023-04-12T11:10:50.960Z,4.10
2023-04-12T11:11:50.941Z,4.00
2023-04-12T11:12:50.984Z,4.10
2023-04-12T11:13:50.979Z,4.00
2023-04-12T11:14:51.029Z,4.10
2023-04-12T11:15:51.008Z,4.20
2023-04-12T11:16:51.095Z,4.20
2023-04-12T11:17:51.123Z,4.20
2023-04-12T11:18:51.082Z,4.30
2023-04-12T11:19:51.060Z,4.10
2023-04-12T11:20:51.109Z,4.10
2023-04-12T11:22:51.127Z,3.90
2023-04-12T11:23:51.203Z,4.10
2023-04-12T11:24:51.156Z,4.20
2023-04-12T11:25:51.163Z,4.30
2023-04-12T11:26:51.155Z,4.20
2023-04-12T11:27:51.189Z,4.10
2023-04-12T11:28:51.185Z,4.30
2023-04-12T11:29:51.207Z,4.00
2023-04-12T11:30:51.218Z,3.90
2023-04-12T11:31:51.331Z,3.90
2023-04-12T11:32:51.269Z,3.90
2023-04-12T11:33:51.267Z,4.30
2023-04-12T11:34:51.267Z,4.10
2023-04-12T11:35:51.289Z,3.90
2023-04-12T11:36:51.299Z,4.00
2023-04-12T11:37:51.323Z,4.00
2023-04-12T11:38:51.334Z,4.10
2023-04-12T11:39:51.363Z,4.30
2023-04-12T11:40:51.365Z,4.10
2023-04-12T11:41:51.383Z,4.10
2023-04-12T11:42:51.388Z,3.80
2023-04-12T11:43:51.409Z,4.00
2023-04-12T11:44:58.505Z,4.10
2023-04-12T11:45:51.468Z,3.80
2023-04-12T11:46:51.442Z,4.00
2023-04-12T11:47:51.486Z,3.80
2023-04-12T11:48:51.471Z,3.90
2023-04-12T11:49:51.499Z,4.10
2023-04-12T11:50:59.968Z,3.70
2023-04-12T11:51:51.525Z,3.90
2023-04-12T11:52:51.536Z,4.20
2023-04-12T11:53:51.549Z,3.90
2023-04-12T11:54:51.571Z,4.20
2023-04-12T11:55:51.594Z,4.20
2023-04-12T11:56:51.595Z,4.20
2023-04-12T11:57:51.605Z,4.00
2023-04-12T11:58:51.615Z,3.80
2023-04-12T11:59:51.657Z,3.90
2023-04-12T12:00:51.660Z,4.20
2023-04-12T12:01:51.727Z,4.10
2023-04-12T12:03:06.749Z,4.00
2023-04-12T12:03:51.971Z,4.40
2023-04-12T12:04:52.173Z,4.20
2023-04-12T12:05:52.246Z,4.00
2023-04-12T12:06:52.131Z,4.20
2023-04-12T12:07:51.744Z,4.10
2023-04-12T12:08:51.782Z,3.90
2023-04-12T12:09:51.793Z,4.20
2023-04-12T12:11:04.118Z,4.20
2023-04-12T12:11:51.829Z,4.10
2023-04-12T12:12:51.822Z,4.10
2023-04-12T12:13:51.828Z,4.10
2023-04-12T12:14:51.849Z,4.20
2023-04-12T12:15:51.924Z,3.80
2023-04-12T12:16:51.873Z,4.10
2023-04-12T12:17:51.918Z,4.00
2023-04-12T12:18:52.753Z,4.00
2023-04-12T12:19:51.915Z,3.90
2023-04-12T12:20:51.946Z,4.10
2023-04-12T12:21:51.942Z,4.10
2023-04-12T12:22:51.956Z,3.80
2023-04-12T12:23:51.977Z,4.10
2023-04-12T12:24:51.998Z,3.80
2023-04-12T12:25:57.773Z,3.80
2023-04-12T12:26:52.024Z,4.00
2023-04-12T12:27:52.139Z,4.00
2023-04-12T12:28:52.046Z,4.10
2023-04-12T12:29:52.073Z,4.10
2023-04-12T12:30:52.128Z,4.50
2023-04-12T12:31:52.223Z,4.60
2023-04-12T12:32:52.142Z,4.20
2023-04-12T12:33:52.124Z,4.20
2023-04-12T12:34:52.161Z,4.40
2023-04-12T12:35:52.163Z,4.10
2023-04-12T12:36:52.168Z,3.90
2023-04-12T12:37:52.176Z,4.10
2023-04-12T12:38:52.197Z,4.40
2023-04-12T12:39:52.211Z,4.20
2023-04-12T12:40:52.227Z,4.30
2023-04-12T12:41:52.240Z,4.40
2023-04-12T12:42:52.292Z,4.80
2023-04-12T12:43:52.317Z,4.10
2023-04-12T12:44:52.275Z,4.10
2023-04-12T12:45:52.298Z,4.20
2023-04-12T12:46:57.012Z,4.30
2023-04-12T12:47:52.518Z,4.50
2023-04-12T12:48:52.334Z,4.20
2023-04-12T12:49:52.352Z,4.30
2023-04-12T12:50:52.370Z,4.40
2023-04-12T12:51:52.416Z,4.20
2023-04-12T12:52:52.401Z,4.20
2023-04-12T12:53:52.420Z,4.30
2023-04-12T12:54:52.431Z,4.40
2023-04-12T12:55:52.435Z,4.50
2023-04-12T12:56:52.465Z,4.50
2023-04-12T12:58:06.599Z,4.70
2023-04-12T12:58:53.494Z,4.30
2023-04-12T12:59:52.519Z,4.50
2023-04-12T13:00:52.518Z,4.30
2023-04-12T13:01:52.642Z,4.40
2023-04-12T13:02:52.729Z,4.40
2023-04-12T13:03:52.790Z,4.50
2023-04-12T13:04:52.711Z,4.60
2023-04-12T13:05:52.585Z,4.50
2023-04-12T13:06:52.592Z,4.40
2023-04-12T13:07:52.614Z,4.60
2023-04-12T13:08:52.622Z,4.10
2023-04-12T13:09:52.642Z,4.50
2023-04-12T13:10:52.658Z,4.30
2023-04-12T13:11:52.680Z,4.50
2023-04-12T13:12:52.684Z,4.50
2023-04-12T13:13:52.694Z,4.20
2023-04-12T13:14:56.163Z,4.10
2023-04-12T13:15:52.895Z,4.50
2023-04-12T13:16:52.938Z,4.10
2023-04-12T13:17:53.067Z,4.40
2023-04-12T13:18:52.772Z,4.30
2023-04-12T13:19:52.786Z,4.10